Terminal Aerodrome Forecast
Issued by NWS

Home | Current Version | Previous Version | Text Only | Print | Product List | Glossary On
Versions: 1 2 3 4 5 6 7 8 9 10 11 12
000
FTUS44 KOUN 091126
TAFLAW
TAF
KLAW 091126Z 0912/1012 09006KT P6SM BKN060
     FM091600 16012KT P6SM BKN050
     FM100000 14005KT P6SM BKN050=

USA.gov is the U.S. government's official web portal to all federal, state and local government web resources and services.